sensor_id;sensor_type;location;lat;lon;timestamp;temperature;humidity
4795;DHT22;2411;47.060;15.064;2023-04-15T00:01:11;5.10;1.00
4795;DHT22;2411;47.060;15.064;2023-04-15T00:03:45;5.00;1.00
4795;DHT22;2411;47.060;15.064;2023-04-15T00:06:13;5.00;1.00
4795;DHT22;2411;47.060;15.064;2023-04-15T00:08:40;5.00;1.00
4795;DHT22;2411;47.060;15.064;2023-04-15T00:11:08;4.90;1.00
4795;DHT22;2411;47.060;15.064;2023-04-15T00:13:36;4.90;1.00
4795;DHT22;2411;47.060;15.064;2023-04-15T00:16:04;5.00;1.00
4795;DHT22;2411;47.060;15.064;2023-04-15T00:18:32;5.00;1.00
4795;DHT22;2411;47.060;15.064;2023-04-15T00:20:59;4.90;1.00
4795;DHT22;2411;47.060;15.064;2023-04-15T00:23:27;4.90;1.00
4795;DHT22;2411;47.060;15.064;2023-04-15T00:25:54;4.80;1.00
4795;DHT22;2411;47.060;15.064;2023-04-15T00:28:21;5.10;1.00
4795;DHT22;2411;47.060;15.064;2023-04-15T00:30:49;5.00;1.00
4795;DHT22;2411;47.060;15.064;2023-04-15T00:33:16;5.10;1.00
4795;DHT22;2411;47.060;15.064;2023-04-15T00:35:44;4.90;1.00
4795;DHT22;2411;47.060;15.064;2023-04-15T00:38:12;4.80;1.00
4795;DHT22;2411;47.060;15.064;2023-04-15T00:40:39;4.80;1.00
4795;DHT22;2411;47.060;15.064;2023-04-15T00:43:07;4.90;1.00
4795;DHT22;2411;47.060;15.064;2023-04-15T00:45:34;5.00;1.00
4795;DHT22;2411;47.060;15.064;2023-04-15T00:48:02;5.00;1.00
4795;DHT22;2411;47.060;15.064;2023-04-15T00:50:29;5.00;1.00
4795;DHT22;2411;47.060;15.064;2023-04-15T00:52:56;4.80;1.00
4795;DHT22;2411;47.060;15.064;2023-04-15T00:55:24;4.90;1.00
4795;DHT22;2411;47.060;15.064;2023-04-15T00:57:51;4.80;1.00
4795;DHT22;2411;47.060;15.064;2023-04-15T01:00:19;4.70;1.00
4795;DHT22;2411;47.060;15.064;2023-04-15T01:02:46;5.00;1.00
4795;DHT22;2411;47.060;15.064;2023-04-15T01:05:15;4.80;1.00
4795;DHT22;2411;47.060;15.064;2023-04-15T01:07:45;4.80;1.00
4795;DHT22;2411;47.060;15.064;2023-04-15T01:10:12;4.80;1.00
4795;DHT22;2411;47.060;15.064;2023-04-15T01:12:40;4.70;1.00
4795;DHT22;2411;47.060;15.064;2023-04-15T01:15:08;4.80;1.00
4795;DHT22;2411;47.060;15.064;2023-04-15T01:17:37;4.70;1.00
4795;DHT22;2411;47.060;15.064;2023-04-15T01:20:06;5.00;1.00
4795;DHT22;2411;47.060;15.064;2023-04-15T01:22:36;4.70;1.00
4795;DHT22;2411;47.060;15.064;2023-04-15T01:25:08;4.80;1.00
4795;DHT22;2411;47.060;15.064;2023-04-15T01:27:38;4.80;1.00
4795;DHT22;2411;47.060;15.064;2023-04-15T01:30:08;4.70;1.00
4795;DHT22;2411;47.060;15.064;2023-04-15T01:32:36;4.60;1.00
4795;DHT22;2411;47.060;15.064;2023-04-15T01:35:04;4.60;1.00
4795;DHT22;2411;47.060;15.064;2023-04-15T01:37:32;4.50;1.00
4795;DHT22;2411;47.060;15.064;2023-04-15T01:39:59;4.70;1.00
4795;DHT22;2411;47.060;15.064;2023-04-15T01:42:27;4.60;1.00
4795;DHT22;2411;47.060;15.064;2023-04-15T01:44:54;4.70;1.00
4795;DHT22;2411;47.060;15.064;2023-04-15T01:47:21;4.60;1.00
4795;DHT22;2411;47.060;15.064;2023-04-15T01:49:49;4.60;1.00
4795;DHT22;2411;47.060;15.064;2023-04-15T01:52:16;4.60;1.00
4795;DHT22;2411;47.060;15.064;2023-04-15T01:54:44;4.50;1.00
4795;DHT22;2411;47.060;15.064;2023-04-15T01:57:11;4.60;1.00
4795;DHT22;2411;47.060;15.064;2023-04-15T01:59:39;4.50;1.00
4795;DHT22;2411;47.060;15.064;2023-04-15T02:02:07;4.50;1.00
4795;DHT22;2411;47.060;15.064;2023-04-15T02:04:34;4.40;1.00
4795;DHT22;2411;47.060;15.064;2023-04-15T02:07:01;4.40;1.00
4795;DHT22;2411;47.060;15.064;2023-04-15T02:09:28;4.40;1.00
4795;DHT22;2411;47.060;15.064;2023-04-15T02:11:56;4.40;1.00
4795;DHT22;2411;47.060;15.064;2023-04-15T02:14:23;4.60;1.00
4795;DHT22;2411;47.060;15.064;2023-04-15T02:16:50;4.30;1.00
4795;DHT22;2411;47.060;15.064;2023-04-15T02:19:18;4.40;1.00
4795;DHT22;2411;47.060;15.064;2023-04-15T02:21:45;4.30;1.00
4795;DHT22;2411;47.060;15.064;2023-04-15T02:24:12;4.40;1.00
4795;DHT22;2411;47.060;15.064;2023-04-15T02:26:39;4.40;1.00
4795;DHT22;2411;47.060;15.064;2023-04-15T02:29:07;4.40;1.00
4795;DHT22;2411;47.060;15.064;2023-04-15T02:31:34;4.40;1.00
4795;DHT22;2411;47.060;15.064;2023-04-15T02:34:06;4.40;1.00
4795;DHT22;2411;47.060;15.064;2023-04-15T02:36:34;4.60;1.00
4795;DHT22;2411;47.060;15.064;2023-04-15T02:39:02;4.50;1.00
4795;DHT22;2411;47.060;15.064;2023-04-15T02:41:30;4.50;1.00
4795;DHT22;2411;47.060;15.064;2023-04-15T02:43:57;4.40;1.00
4795;DHT22;2411;47.060;15.064;2023-04-15T02:46:24;4.60;1.00
4795;DHT22;2411;47.060;15.064;2023-04-15T02:48:53;4.50;1.00
4795;DHT22;2411;47.060;15.064;2023-04-15T02:51:21;4.60;1.00
4795;DHT22;2411;47.060;15.064;2023-04-15T02:53:49;4.60;1.00
4795;DHT22;2411;47.060;15.064;2023-04-15T02:56:16;4.60;1.00
4795;DHT22;2411;47.060;15.064;2023-04-15T02:58:45;4.50;1.00
4795;DHT22;2411;47.060;15.064;2023-04-15T03:01:12;4.30;1.00
4795;DHT22;2411;47.060;15.064;2023-04-15T03:03:40;4.30;1.00
4795;DHT22;2411;47.060;15.064;2023-04-15T03:06:08;4.50;1.00
4795;DHT22;2411;47.060;15.064;2023-04-15T03:08:35;4.40;1.00
4795;DHT22;2411;47.060;15.064;2023-04-15T03:11:03;4.50;1.00
4795;DHT22;2411;47.060;15.064;2023-04-15T03:13:31;4.40;1.00
4795;DHT22;2411;47.060;15.064;2023-04-15T03:15:58;4.40;1.00
4795;DHT22;2411;47.060;15.064;2023-04-15T03:18:25;4.60;1.00
4795;DHT22;2411;47.060;15.064;2023-04-15T03:20:52;4.40;1.00
4795;DHT22;2411;47.060;15.064;2023-04-15T03:23:20;4.50;1.00
4795;DHT22;2411;47.060;15.064;2023-04-15T03:25:47;4.40;1.00
4795;DHT22;2411;47.060;15.064;2023-04-15T03:28:14;4.50;1.00
4795;DHT22;2411;47.060;15.064;2023-04-15T03:30:42;4.40;1.00
4795;DHT22;2411;47.060;15.064;2023-04-15T03:33:09;4.30;1.00
4795;DHT22;2411;47.060;15.064;2023-04-15T03:35:37;4.30;1.00
4795;DHT22;2411;47.060;15.064;2023-04-15T03:38:04;4.20;1.00
4795;DHT22;2411;47.060;15.064;2023-04-15T03:40:31;4.50;1.00
4795;DHT22;2411;47.060;15.064;2023-04-15T03:42:59;4.40;1.00
4795;DHT22;2411;47.060;15.064;2023-04-15T03:45:26;4.30;1.00
4795;DHT22;2411;47.060;15.064;2023-04-15T03:47:53;4.40;1.00
4795;DHT22;2411;47.060;15.064;2023-04-15T03:50:21;4.40;1.00
4795;DHT22;2411;47.060;15.064;2023-04-15T03:52:49;4.20;1.00
4795;DHT22;2411;47.060;15.064;2023-04-15T03:55:17;4.20;1.00
4795;DHT22;2411;47.060;15.064;2023-04-15T03:57:44;4.30;1.00
4795;DHT22;2411;47.060;15.064;2023-04-15T04:00:12;4.30;1.00
4795;DHT22;2411;47.060;15.064;2023-04-15T04:02:39;4.40;1.00
4795;DHT22;2411;47.060;15.064;2023-04-15T04:05:08;4.40;1.00
4795;DHT22;2411;47.060;15.064;2023-04-15T04:07:35;4.40;1.00
4795;DHT22;2411;47.060;15.064;2023-04-15T04:10:03;4.50;1.00
4795;DHT22;2411;47.060;15.064;2023-04-15T04:12:30;4.50;1.00
4795;DHT22;2411;47.060;15.064;2023-04-15T04:14:57;4.40;1.00
4795;DHT22;2411;47.060;15.064;2023-04-15T04:17:25;4.20;1.00
4795;DHT22;2411;47.060;15.064;2023-04-15T04:19:52;4.40;1.00
4795;DHT22;2411;47.060;15.064;2023-04-15T04:22:23;4.50;1.00
4795;DHT22;2411;47.060;15.064;2023-04-15T04:24:50;4.40;1.00
4795;DHT22;2411;47.060;15.064;2023-04-15T04:27:18;4.20;1.00
4795;DHT22;2411;47.060;15.064;2023-04-15T04:29:45;4.40;1.00
4795;DHT22;2411;47.060;15.064;2023-04-15T04:32:13;4.40;1.00
4795;DHT22;2411;47.060;15.064;2023-04-15T04:34:41;4.60;1.00
4795;DHT22;2411;47.060;15.064;2023-04-15T04:37:08;4.50;1.00
4795;DHT22;2411;47.060;15.064;2023-04-15T04:39:36;4.30;1.00
4795;DHT22;2411;47.060;15.064;2023-04-15T04:42:03;4.50;1.00
4795;DHT22;2411;47.060;15.064;2023-04-15T04:44:30;4.50;1.00
4795;DHT22;2411;47.060;15.064;2023-04-15T04:46:57;4.60;1.00
4795;DHT22;2411;47.060;15.064;2023-04-15T04:49:25;4.60;1.00
4795;DHT22;2411;47.060;15.064;2023-04-15T04:51:52;4.50;1.00
4795;DHT22;2411;47.060;15.064;2023-04-15T04:54:19;4.50;1.00
4795;DHT22;2411;47.060;15.064;2023-04-15T04:56:47;4.60;1.00
4795;DHT22;2411;47.060;15.064;2023-04-15T04:59:14;4.50;1.00
4795;DHT22;2411;47.060;15.064;2023-04-15T05:01:42;4.70;1.00
4795;DHT22;2411;47.060;15.064;2023-04-15T05:04:10;4.60;1.00
4795;DHT22;2411;47.060;15.064;2023-04-15T05:06:37;4.50;1.00
4795;DHT22;2411;47.060;15.064;2023-04-15T05:09:05;4.50;1.00
4795;DHT22;2411;47.060;15.064;2023-04-15T05:11:32;4.40;1.00
4795;DHT22;2411;47.060;15.064;2023-04-15T05:13:59;4.40;1.00
4795;DHT22;2411;47.060;15.064;2023-04-15T05:16:28;4.50;1.00
4795;DHT22;2411;47.060;15.064;2023-04-15T05:18:55;4.70;1.00
4795;DHT22;2411;47.060;15.064;2023-04-15T05:21:22;4.70;1.00
4795;DHT22;2411;47.060;15.064;2023-04-15T05:23:50;4.60;1.00
4795;DHT22;2411;47.060;15.064;2023-04-15T05:26:17;4.60;1.00
4795;DHT22;2411;47.060;15.064;2023-04-15T05:28:44;4.70;1.00
4795;DHT22;2411;47.060;15.064;2023-04-15T05:31:12;4.70;1.00
4795;DHT22;2411;47.060;15.064;2023-04-15T05:33:39;5.00;1.00
4795;DHT22;2411;47.060;15.064;2023-04-15T05:36:07;4.80;1.00
4795;DHT22;2411;47.060;15.064;2023-04-15T05:38:34;5.00;1.00
4795;DHT22;2411;47.060;15.064;2023-04-15T05:41:02;5.10;1.00
4795;DHT22;2411;47.060;15.064;2023-04-15T05:43:29;5.10;1.00
4795;DHT22;2411;47.060;15.064;2023-04-15T05:45:57;5.10;1.00
4795;DHT22;2411;47.060;15.064;2023-04-15T05:48:24;5.40;1.00
4795;DHT22;2411;47.060;15.064;2023-04-15T05:50:52;5.30;1.00
4795;DHT22;2411;47.060;15.064;2023-04-15T05:53:19;5.30;1.00
4795;DHT22;2411;47.060;15.064;2023-04-15T05:55:47;5.40;1.00
4795;DHT22;2411;47.060;15.064;2023-04-15T05:58:15;5.30;1.00
4795;DHT22;2411;47.060;15.064;2023-04-15T06:00:42;5.20;1.00
4795;DHT22;2411;47.060;15.064;2023-04-15T06:03:10;5.40;1.00
4795;DHT22;2411;47.060;15.064;2023-04-15T06:05:38;5.40;1.00
4795;DHT22;2411;47.060;15.064;2023-04-15T06:08:06;5.40;1.00
4795;DHT22;2411;47.060;15.064;2023-04-15T06:10:35;5.40;1.00
4795;DHT22;2411;47.060;15.064;2023-04-15T06:13:03;5.70;1.00
4795;DHT22;2411;47.060;15.064;2023-04-15T06:15:31;5.70;1.00
4795;DHT22;2411;47.060;15.064;2023-04-15T06:17:58;5.70;1.00
4795;DHT22;2411;47.060;15.064;2023-04-15T06:20:26;5.80;1.00
4795;DHT22;2411;47.060;15.064;2023-04-15T06:22:53;5.70;1.00
4795;DHT22;2411;47.060;15.064;2023-04-15T06:25:21;5.80;1.00
4795;DHT22;2411;47.060;15.064;2023-04-15T06:27:49;5.70;1.00
4795;DHT22;2411;47.060;15.064;2023-04-15T06:30:16;5.70;1.00
4795;DHT22;2411;47.060;15.064;2023-04-15T06:32:44;5.90;1.00
4795;DHT22;2411;47.060;15.064;2023-04-15T06:35:12;5.90;1.00
4795;DHT22;2411;47.060;15.064;2023-04-15T06:37:39;5.70;1.00
4795;DHT22;2411;47.060;15.064;2023-04-15T06:40:07;5.70;1.00
4795;DHT22;2411;47.060;15.064;2023-04-15T06:42:36;5.80;1.00
4795;DHT22;2411;47.060;15.064;2023-04-15T06:45:04;5.80;1.00
4795;DHT22;2411;47.060;15.064;2023-04-15T06:47:32;5.80;1.00
4795;DHT22;2411;47.060;15.064;2023-04-15T06:50:00;5.70;1.00
4795;DHT22;2411;47.060;15.064;2023-04-15T06:52:27;5.90;1.00
4795;DHT22;2411;47.060;15.064;2023-04-15T06:54:54;5.80;1.00
4795;DHT22;2411;47.060;15.064;2023-04-15T06:57:22;5.90;1.00
4795;DHT22;2411;47.060;15.064;2023-04-15T06:59:49;5.90;1.00
4795;DHT22;2411;47.060;15.064;2023-04-15T07:02:18;5.90;1.00
4795;DHT22;2411;47.060;15.064;2023-04-15T07:04:46;6.00;1.00
4795;DHT22;2411;47.060;15.064;2023-04-15T07:07:13;5.90;1.00
4795;DHT22;2411;47.060;15.064;2023-04-15T07:09:41;6.00;1.00
4795;DHT22;2411;47.060;15.064;2023-04-15T07:12:09;6.20;1.00
4795;DHT22;2411;47.060;15.064;2023-04-15T07:14:36;6.10;1.00
4795;DHT22;2411;47.060;15.064;2023-04-15T07:17:03;6.10;1.00
4795;DHT22;2411;47.060;15.064;2023-04-15T07:19:31;6.10;1.00
4795;DHT22;2411;47.060;15.064;2023-04-15T07:21:58;6.20;1.00
4795;DHT22;2411;47.060;15.064;2023-04-15T07:24:25;6.30;1.00
4795;DHT22;2411;47.060;15.064;2023-04-15T07:26:53;6.30;1.00
4795;DHT22;2411;47.060;15.064;2023-04-15T07:29:26;6.40;1.00
4795;DHT22;2411;47.060;15.064;2023-04-15T07:31:53;6.60;1.00
4795;DHT22;2411;47.060;15.064;2023-04-15T07:34:23;6.60;1.00
4795;DHT22;2411;47.060;15.064;2023-04-15T07:36:50;6.70;1.00
4795;DHT22;2411;47.060;15.064;2023-04-15T07:39:18;6.90;1.00
4795;DHT22;2411;47.060;15.064;2023-04-15T07:41:45;6.90;1.00
4795;DHT22;2411;47.060;15.064;2023-04-15T07:44:12;7.00;1.00
4795;DHT22;2411;47.060;15.064;2023-04-15T07:46:40;7.10;1.00
4795;DHT22;2411;47.060;15.064;2023-04-15T07:49:07;7.00;1.00
4795;DHT22;2411;47.060;15.064;2023-04-15T07:51:35;7.10;1.00
4795;DHT22;2411;47.060;15.064;2023-04-15T07:54:03;7.40;1.00
4795;DHT22;2411;47.060;15.064;2023-04-15T07:56:30;7.40;1.00
4795;DHT22;2411;47.060;15.064;2023-04-15T07:58:58;7.60;1.00
4795;DHT22;2411;47.060;15.064;2023-04-15T08:01:28;7.70;1.00
4795;DHT22;2411;47.060;15.064;2023-04-15T08:03:56;7.80;1.00
4795;DHT22;2411;47.060;15.064;2023-04-15T08:06:24;7.90;1.00
4795;DHT22;2411;47.060;15.064;2023-04-15T08:08:52;7.90;1.00
4795;DHT22;2411;47.060;15.064;2023-04-15T08:11:20;8.00;1.00
4795;DHT22;2411;47.060;15.064;2023-04-15T08:13:49;8.20;1.00
4795;DHT22;2411;47.060;15.064;2023-04-15T08:16:20;8.10;1.00
4795;DHT22;2411;47.060;15.064;2023-04-15T08:18:50;8.10;1.00
4795;DHT22;2411;47.060;15.064;2023-04-15T08:21:18;8.20;1.00
4795;DHT22;2411;47.060;15.064;2023-04-15T08:23:47;8.20;1.00
4795;DHT22;2411;47.060;15.064;2023-04-15T08:26:16;8.30;1.00
4795;DHT22;2411;47.060;15.064;2023-04-15T08:28:45;8.10;1.00
4795;DHT22;2411;47.060;15.064;2023-04-15T08:31:13;8.00;1.00
4795;DHT22;2411;47.060;15.064;2023-04-15T08:33:41;8.00;1.00
4795;DHT22;2411;47.060;15.064;2023-04-15T08:36:09;7.90;1.00
4795;DHT22;2411;47.060;15.064;2023-04-15T08:38:36;7.90;1.00
4795;DHT22;2411;47.060;15.064;2023-04-15T08:41:25;7.80;1.00
4795;DHT22;2411;47.060;15.064;2023-04-15T08:43:59;7.90;1.00
4795;DHT22;2411;47.060;15.064;2023-04-15T08:46:27;7.80;1.00
4795;DHT22;2411;47.060;15.064;2023-04-15T08:48:56;7.90;1.00
4795;DHT22;2411;47.060;15.064;2023-04-15T08:51:24;7.90;1.00
4795;DHT22;2411;47.060;15.064;2023-04-15T08:53:52;8.00;1.00
4795;DHT22;2411;47.060;15.064;2023-04-15T08:56:24;8.20;1.00
4795;DHT22;2411;47.060;15.064;2023-04-15T08:58:53;8.30;1.00
4795;DHT22;2411;47.060;15.064;2023-04-15T09:01:20;8.30;1.00
4795;DHT22;2411;47.060;15.064;2023-04-15T09:03:49;8.50;1.00
4795;DHT22;2411;47.060;15.064;2023-04-15T09:06:17;8.70;1.00
4795;DHT22;2411;47.060;15.064;2023-04-15T09:08:44;8.90;1.00
4795;DHT22;2411;47.060;15.064;2023-04-15T09:11:11;9.10;1.00
4795;DHT22;2411;47.060;15.064;2023-04-15T09:13:39;9.10;1.00
4795;DHT22;2411;47.060;15.064;2023-04-15T09:16:06;9.50;1.00
4795;DHT22;2411;47.060;15.064;2023-04-15T09:18:35;9.60;1.00
4795;DHT22;2411;47.060;15.064;2023-04-15T09:21:07;9.50;1.00
4795;DHT22;2411;47.060;15.064;2023-04-15T09:23:38;9.70;1.00
4795;DHT22;2411;47.060;15.064;2023-04-15T09:26:07;9.70;1.00
4795;DHT22;2411;47.060;15.064;2023-04-15T09:28:41;9.80;1.00
4795;DHT22;2411;47.060;15.064;2023-04-15T09:31:09;10.00;1.00
4795;DHT22;2411;47.060;15.064;2023-04-15T09:33:53;9.90;1.00
4795;DHT22;2411;47.060;15.064;2023-04-15T09:36:22;9.90;1.00
4795;DHT22;2411;47.060;15.064;2023-04-15T09:38:58;10.30;1.00
4795;DHT22;2411;47.060;15.064;2023-04-15T09:41:26;10.30;1.00
4795;DHT22;2411;47.060;15.064;2023-04-15T09:43:54;10.00;1.00
4795;DHT22;2411;47.060;15.064;2023-04-15T09:46:40;10.20;1.00
4795;DHT22;2411;47.060;15.064;2023-04-15T09:49:10;10.40;1.00
4795;DHT22;2411;47.060;15.064;2023-04-15T09:51:38;10.40;1.00
4795;DHT22;2411;47.060;15.064;2023-04-15T09:54:05;10.30;1.00
4795;DHT22;2411;47.060;15.064;2023-04-15T09:56:38;10.50;1.00
4795;DHT22;2411;47.060;15.064;2023-04-15T09:59:08;10.80;1.00
4795;DHT22;2411;47.060;15.064;2023-04-15T10:01:35;10.70;1.00
4795;DHT22;2411;47.060;15.064;2023-04-15T10:04:04;10.60;1.00
4795;DHT22;2411;47.060;15.064;2023-04-15T10:06:33;10.70;1.00
4795;DHT22;2411;47.060;15.064;2023-04-15T10:09:02;10.60;1.00
4795;DHT22;2411;47.060;15.064;2023-04-15T10:11:30;10.60;1.00
4795;DHT22;2411;47.060;15.064;2023-04-15T10:13:59;10.70;1.00
4795;DHT22;2411;47.060;15.064;2023-04-15T10:16:27;10.50;1.00
4795;DHT22;2411;47.060;15.064;2023-04-15T10:18:56;10.50;1.00
4795;DHT22;2411;47.060;15.064;2023-04-15T10:21:24;10.50;1.00
4795;DHT22;2411;47.060;15.064;2023-04-15T10:23:51;10.20;1.00
4795;DHT22;2411;47.060;15.064;2023-04-15T10:26:19;10.40;1.00
4795;DHT22;2411;47.060;15.064;2023-04-15T10:28:46;10.30;1.00
4795;DHT22;2411;47.060;15.064;2023-04-15T10:31:16;10.40;1.00
4795;DHT22;2411;47.060;15.064;2023-04-15T10:33:45;10.30;1.00
4795;DHT22;2411;47.060;15.064;2023-04-15T10:36:13;10.30;1.00
4795;DHT22;2411;47.060;15.064;2023-04-15T10:38:43;10.40;1.00
4795;DHT22;2411;47.060;15.064;2023-04-15T10:41:25;10.20;1.00
4795;DHT22;2411;47.060;15.064;2023-04-15T10:44:02;10.30;1.00
4795;DHT22;2411;47.060;15.064;2023-04-15T10:46:40;10.40;1.00
4795;DHT22;2411;47.060;15.064;2023-04-15T10:49:08;10.40;1.00
4795;DHT22;2411;47.060;15.064;2023-04-15T10:51:39;10.40;1.00
4795;DHT22;2411;47.060;15.064;2023-04-15T10:54:13;10.30;1.00
4795;DHT22;2411;47.060;15.064;2023-04-15T10:56:44;10.50;1.00
4795;DHT22;2411;47.060;15.064;2023-04-15T10:59:12;10.60;1.00
4795;DHT22;2411;47.060;15.064;2023-04-15T11:02:02;10.60;1.00
4795;DHT22;2411;47.060;15.064;2023-04-15T11:04:57;10.60;1.00
4795;DHT22;2411;47.060;15.064;2023-04-15T11:12:53;11.00;1.00
4795;DHT22;2411;47.060;15.064;2023-04-15T11:15:45;11.10;1.00
4795;DHT22;2411;47.060;15.064;2023-04-15T11:18:17;10.90;1.00
4795;DHT22;2411;47.060;15.064;2023-04-15T11:20:53;11.00;1.00
4795;DHT22;2411;47.060;15.064;2023-04-15T11:25:57;10.90;1.00
4795;DHT22;2411;47.060;15.064;2023-04-15T11:28:27;10.90;1.00
4795;DHT22;2411;47.060;15.064;2023-04-15T11:30:55;11.00;1.00
4795;DHT22;2411;47.060;15.064;2023-04-15T11:33:23;11.10;1.00
4795;DHT22;2411;47.060;15.064;2023-04-15T11:35:53;11.20;1.00
4795;DHT22;2411;47.060;15.064;2023-04-15T11:38:21;11.60;1.00
4795;DHT22;2411;47.060;15.064;2023-04-15T11:40:50;11.60;1.00
4795;DHT22;2411;47.060;15.064;2023-04-15T11:43:22;11.50;1.00
4795;DHT22;2411;47.060;15.064;2023-04-15T11:45:57;11.50;1.00
4795;DHT22;2411;47.060;15.064;2023-04-15T11:48:31;11.40;1.00
4795;DHT22;2411;47.060;15.064;2023-04-15T11:51:00;11.70;1.00
4795;DHT22;2411;47.060;15.064;2023-04-15T11:53:47;11.40;1.00
4795;DHT22;2411;47.060;15.064;2023-04-15T11:56:25;11.20;1.00
4795;DHT22;2411;47.060;15.064;2023-04-15T11:58:55;11.50;1.00
4795;DHT22;2411;47.060;15.064;2023-04-15T12:03:58;11.30;1.00
4795;DHT22;2411;47.060;15.064;2023-04-15T12:06:32;11.30;1.00
4795;DHT22;2411;47.060;15.064;2023-04-15T12:09:07;11.20;1.00
4795;DHT22;2411;47.060;15.064;2023-04-15T12:11:51;11.10;1.00
4795;DHT22;2411;47.060;15.064;2023-04-15T12:14:24;11.10;1.00
4795;DHT22;2411;47.060;15.064;2023-04-15T12:16:59;11.30;1.00
4795;DHT22;2411;47.060;15.064;2023-04-15T12:19:28;11.20;1.00
4795;DHT22;2411;47.060;15.064;2023-04-15T12:22:19;11.30;1.00
4795;DHT22;2411;47.060;15.064;2023-04-15T12:24:53;11.10;1.00
4795;DHT22;2411;47.060;15.064;2023-04-15T12:27:25;11.00;1.00
4795;DHT22;2411;47.060;15.064;2023-04-15T12:30:05;10.80;1.00
4795;DHT22;2411;47.060;15.064;2023-04-15T12:32:34;10.90;1.00
4795;DHT22;2411;47.060;15.064;2023-04-15T12:35:02;11.00;1.00
4795;DHT22;2411;47.060;15.064;2023-04-15T12:37:29;11.20;1.00
4795;DHT22;2411;47.060;15.064;2023-04-15T12:39:57;11.30;1.00
4795;DHT22;2411;47.060;15.064;2023-04-15T12:42:24;11.20;1.00
4795;DHT22;2411;47.060;15.064;2023-04-15T12:44:51;11.40;1.00
4795;DHT22;2411;47.060;15.064;2023-04-15T12:47:19;11.10;1.00
4795;DHT22;2411;47.060;15.064;2023-04-15T12:49:46;11.50;1.00
4795;DHT22;2411;47.060;15.064;2023-04-15T12:52:15;11.30;1.00
4795;DHT22;2411;47.060;15.064;2023-04-15T12:54:42;11.60;1.00
4795;DHT22;2411;47.060;15.064;2023-04-15T12:57:10;11.40;1.00
4795;DHT22;2411;47.060;15.064;2023-04-15T12:59:38;11.00;1.00
4795;DHT22;2411;47.060;15.064;2023-04-15T13:02:05;11.00;1.00
4795;DHT22;2411;47.060;15.064;2023-04-15T13:04:33;10.90;1.00
4795;DHT22;2411;47.060;15.064;2023-04-15T13:07:01;11.00;1.00
4795;DHT22;2411;47.060;15.064;2023-04-15T13:09:28;10.90;1.00
4795;DHT22;2411;47.060;15.064;2023-04-15T13:11:56;10.80;1.00
4795;DHT22;2411;47.060;15.064;2023-04-15T13:14:24;10.80;1.00
4795;DHT22;2411;47.060;15.064;2023-04-15T13:16:51;10.90;1.00
4795;DHT22;2411;47.060;15.064;2023-04-15T13:19:19;10.90;1.00
4795;DHT22;2411;47.060;15.064;2023-04-15T13:21:47;10.80;1.00
4795;DHT22;2411;47.060;15.064;2023-04-15T13:24:14;11.00;1.00
4795;DHT22;2411;47.060;15.064;2023-04-15T13:26:41;11.00;1.00
4795;DHT22;2411;47.060;15.064;2023-04-15T13:29:11;10.70;1.00
4795;DHT22;2411;47.060;15.064;2023-04-15T13:31:40;10.90;1.00
4795;DHT22;2411;47.060;15.064;2023-04-15T13:34:07;11.00;1.00
4795;DHT22;2411;47.060;15.064;2023-04-15T13:36:34;10.80;1.00
4795;DHT22;2411;47.060;15.064;2023-04-15T13:39:02;10.90;1.00
4795;DHT22;2411;47.060;15.064;2023-04-15T13:41:31;11.00;1.00
4795;DHT22;2411;47.060;15.064;2023-04-15T13:43:58;10.80;1.00
4795;DHT22;2411;47.060;15.064;2023-04-15T13:46:26;10.70;1.00
4795;DHT22;2411;47.060;15.064;2023-04-15T13:48:53;10.50;1.00
4795;DHT22;2411;47.060;15.064;2023-04-15T13:51:20;10.60;1.00
4795;DHT22;2411;47.060;15.064;2023-04-15T13:53:47;10.70;1.00
4795;DHT22;2411;47.060;15.064;2023-04-15T13:56:15;10.50;1.00
4795;DHT22;2411;47.060;15.064;2023-04-15T13:58:42;10.60;1.00
4795;DHT22;2411;47.060;15.064;2023-04-15T14:01:09;10.80;1.00
4795;DHT22;2411;47.060;15.064;2023-04-15T14:03:37;10.60;1.00
4795;DHT22;2411;47.060;15.064;2023-04-15T14:06:05;10.70;1.00
4795;DHT22;2411;47.060;15.064;2023-04-15T14:08:32;10.70;1.00
4795;DHT22;2411;47.060;15.064;2023-04-15T14:11:00;10.70;1.00
4795;DHT22;2411;47.060;15.064;2023-04-15T14:13:27;10.80;1.00
4795;DHT22;2411;47.060;15.064;2023-04-15T14:15:56;10.70;1.00
4795;DHT22;2411;47.060;15.064;2023-04-15T14:18:23;10.60;1.00
4795;DHT22;2411;47.060;15.064;2023-04-15T14:20:50;10.60;1.00
4795;DHT22;2411;47.060;15.064;2023-04-15T14:23:18;10.70;1.00
4795;DHT22;2411;47.060;15.064;2023-04-15T14:25:45;10.60;1.00
4795;DHT22;2411;47.060;15.064;2023-04-15T14:28:14;10.60;1.00
4795;DHT22;2411;47.060;15.064;2023-04-15T14:30:42;10.60;1.00
4795;DHT22;2411;47.060;15.064;2023-04-15T14:33:11;10.70;1.00
4795;DHT22;2411;47.060;15.064;2023-04-15T14:35:39;10.50;1.00
4795;DHT22;2411;47.060;15.064;2023-04-15T14:38:06;10.50;1.00
4795;DHT22;2411;47.060;15.064;2023-04-15T14:40:37;10.60;1.00
4795;DHT22;2411;47.060;15.064;2023-04-15T14:43:04;10.50;1.00
4795;DHT22;2411;47.060;15.064;2023-04-15T14:45:32;10.50;1.00
4795;DHT22;2411;47.060;15.064;2023-04-15T14:47:59;10.50;1.00
4795;DHT22;2411;47.060;15.064;2023-04-15T14:50:27;10.50;1.00
4795;DHT22;2411;47.060;15.064;2023-04-15T14:52:54;10.50;1.00
4795;DHT22;2411;47.060;15.064;2023-04-15T14:55:22;10.30;1.00
4795;DHT22;2411;47.060;15.064;2023-04-15T14:57:49;10.20;1.00
4795;DHT22;2411;47.060;15.064;2023-04-15T15:00:16;10.20;1.00
4795;DHT22;2411;47.060;15.064;2023-04-15T15:02:43;10.10;1.00
4795;DHT22;2411;47.060;15.064;2023-04-15T15:05:13;10.00;1.00
4795;DHT22;2411;47.060;15.064;2023-04-15T15:07:41;10.00;1.00
4795;DHT22;2411;47.060;15.064;2023-04-15T15:10:08;10.00;1.00
4795;DHT22;2411;47.060;15.064;2023-04-15T15:12:35;10.00;1.00
4795;DHT22;2411;47.060;15.064;2023-04-15T15:15:03;9.90;1.00
4795;DHT22;2411;47.060;15.064;2023-04-15T15:17:45;9.90;1.00
4795;DHT22;2411;47.060;15.064;2023-04-15T15:20:13;10.00;1.00
4795;DHT22;2411;47.060;15.064;2023-04-15T15:22:40;9.90;1.00
4795;DHT22;2411;47.060;15.064;2023-04-15T15:25:07;9.90;1.00
4795;DHT22;2411;47.060;15.064;2023-04-15T15:27:35;10.10;1.00
4795;DHT22;2411;47.060;15.064;2023-04-15T15:30:04;10.00;1.00
4795;DHT22;2411;47.060;15.064;2023-04-15T15:32:33;10.00;1.00
4795;DHT22;2411;47.060;15.064;2023-04-15T15:35:00;10.10;1.00
4795;DHT22;2411;47.060;15.064;2023-04-15T15:37:29;10.10;1.00
4795;DHT22;2411;47.060;15.064;2023-04-15T15:39:57;10.10;1.00
4795;DHT22;2411;47.060;15.064;2023-04-15T15:42:24;10.10;1.00
4795;DHT22;2411;47.060;15.064;2023-04-15T15:44:52;10.10;1.00
4795;DHT22;2411;47.060;15.064;2023-04-15T15:47:20;10.20;1.00
4795;DHT22;2411;47.060;15.064;2023-04-15T15:49:48;10.10;1.00
4795;DHT22;2411;47.060;15.064;2023-04-15T15:52:15;10.20;1.00
4795;DHT22;2411;47.060;15.064;2023-04-15T15:54:42;10.10;1.00
4795;DHT22;2411;47.060;15.064;2023-04-15T15:57:10;10.10;1.00
4795;DHT22;2411;47.060;15.064;2023-04-15T15:59:37;10.00;1.00
4795;DHT22;2411;47.060;15.064;2023-04-15T16:02:09;10.00;1.00
4795;DHT22;2411;47.060;15.064;2023-04-15T16:04:37;10.00;1.00
4795;DHT22;2411;47.060;15.064;2023-04-15T16:07:05;9.80;1.00
4795;DHT22;2411;47.060;15.064;2023-04-15T16:09:33;9.90;1.00
4795;DHT22;2411;47.060;15.064;2023-04-15T16:12:00;9.90;1.00
4795;DHT22;2411;47.060;15.064;2023-04-15T16:14:29;9.90;1.00
4795;DHT22;2411;47.060;15.064;2023-04-15T16:16:56;9.80;1.00
4795;DHT22;2411;47.060;15.064;2023-04-15T16:19:23;9.70;1.00
4795;DHT22;2411;47.060;15.064;2023-04-15T16:21:51;9.70;1.00
4795;DHT22;2411;47.060;15.064;2023-04-15T16:24:18;9.60;1.00
4795;DHT22;2411;47.060;15.064;2023-04-15T16:26:45;9.70;1.00
4795;DHT22;2411;47.060;15.064;2023-04-15T16:29:13;9.60;1.00
4795;DHT22;2411;47.060;15.064;2023-04-15T16:31:40;9.60;1.00